Time;durP1;ratioP1;P1;durP2;ratioP2;P2;SDS_P1;SDS_P2;PMS_P1;PMS_P2;Temp;Humidity;BMP_temperature;BMP_pressure;BME280_temperature;BME280_humidity;BME280_pressure;Samples;Min_cycle;Max_cycle;Signal;HPM_P1;HPM_P2
2024/01/31 00:10:30;;;;;;;12.35;8.70;;;;;;;9.36;94.77;100803.78;7335856;39;21401;31
2024/01/31 00:20:51;;;;;;;9.25;7.50;;;;;;;9.38;94.97;100809.03;7329677;39;21140;31
2024/01/31 00:26:26;;;;;;;8.50;7.40;;;;;;;9.35;94.45;100811.94;7339605;39;21275;31
2024/01/31 00:31:46;;;;;;;9.15;6.80;;;;;;;9.36;95.61;100813.66;7313057;39;20239;31
2024/01/31 00:37:06;;;;;;;8.43;6.60;;;;;;;9.40;95.16;100809.75;7338327;39;20385;31
2024/01/31 00:42:43;;;;;;;8.25;6.40;;;;;;;9.41;95.51;100811.50;7260508;40;20245;31
2024/01/31 00:48:15;;;;;;;10.63;7.07;;;;;;;9.43;95.46;100814.94;7029876;40;21098;31
2024/01/31 00:53:50;;;;;;;11.10;6.87;;;;;;;9.41;95.36;100804.28;7243505;39;20257;31
2024/01/31 00:59:24;;;;;;;12.20;7.90;;;;;;;9.43;95.39;100805.00;7279126;39;20252;31
2024/01/31 01:04:42;;;;;;;11.55;7.45;;;;;;;9.46;95.44;100804.78;7296928;39;20238;31
2024/01/31 01:10:17;;;;;;;11.60;8.50;;;;;;;9.44;95.55;100795.94;7376476;39;20264;31
2024/01/31 01:15:53;;;;;;;12.43;7.77;;;;;;;9.45;95.33;100799.50;7305200;39;20272;31
2024/01/31 01:21:13;;;;;;;9.40;7.30;;;;;;;9.47;96.03;100805.63;7316297;39;20385;31
2024/01/31 01:26:46;;;;;;;9.80;6.90;;;;;;;9.48;96.11;100805.50;7250413;40;20403;31
2024/01/31 01:32:23;;;;;;;10.50;7.30;;;;;;;9.47;95.59;100806.50;7266950;40;20241;31
2024/01/31 01:37:58;;;;;;;11.43;6.93;;;;;;;9.50;95.80;100802.69;7228150;40;20246;31
2024/01/31 01:48:49;;;;;;;11.90;7.00;;;;;;;9.48;95.59;100805.50;7293872;39;20342;31
2024/01/31 01:59:40;;;;;;;11.40;7.30;;;;;;;9.55;95.76;100797.81;7303642;39;21678;31
2024/01/31 02:05:16;;;;;;;10.30;8.00;;;;;;;9.52;95.77;100789.13;7184316;40;20254;31
2024/01/31 02:10:37;;;;;;;12.70;7.50;;;;;;;9.55;96.76;100780.81;7182194;40;20259;31
2024/01/31 02:16:12;;;;;;;10.80;7.75;;;;;;;9.55;95.79;100773.59;7215825;40;20458;31
2024/01/31 02:21:47;;;;;;;10.15;7.25;;;;;;;9.57;96.18;100778.81;7199479;40;20379;31
2024/01/31 02:27:23;;;;;;;11.20;7.80;;;;;;;9.56;95.90;100772.63;7266192;39;20376;31
2024/01/31 02:32:58;;;;;;;10.87;8.20;;;;;;;9.55;96.19;100776.28;7285226;39;20253;31
2024/01/31 02:38:33;;;;;;;13.60;7.97;;;;;;;9.54;96.19;100771.88;7290638;39;20256;31
2024/01/31 02:44:09;;;;;;;12.05;8.35;;;;;;;9.55;96.20;100778.97;7274130;40;20246;31
2024/01/31 02:49:44;;;;;;;10.35;7.80;;;;;;;9.54;96.28;100782.63;7219121;40;20258;31
2024/01/31 02:55:17;;;;;;;11.50;8.30;;;;;;;9.54;96.58;100785.31;7215633;40;20265;31
2024/01/31 03:06:50;;;;;;;11.00;8.05;;;;;;;9.54;96.37;100776.37;7293243;39;20299;31
2024/01/31 03:12:09;;;;;;;16.77;8.70;;;;;;;9.54;96.63;100773.69;7360475;39;20399;31
2024/01/31 03:17:35;;;;;;;11.70;7.77;;;;;;;9.55;96.26;100781.66;7338712;39;20417;31
2024/01/31 03:23:05;;;;;;;10.57;8.03;;;;;;;9.49;96.29;100787.50;7318832;39;20264;31
2024/01/31 03:28:24;;;;;;;13.40;8.87;;;;;;;9.51;96.89;100793.66;7300852;39;20252;31
2024/01/31 03:33:59;;;;;;;13.70;9.50;;;;;;;9.45;96.96;100786.03;7280684;39;20330;31
2024/01/31 03:39:35;;;;;;;12.95;9.95;;;;;;;9.42;96.79;100797.91;7217331;40;20272;31
2024/01/31 03:45:10;;;;;;;13.20;9.75;;;;;;;9.41;97.33;100806.09;7174705;40;20463;31
2024/01/31 03:50:45;;;;;;;13.10;9.50;;;;;;;9.40;96.74;100810.63;7207320;40;20257;31
2024/01/31 03:56:22;;;;;;;12.35;9.85;;;;;;;9.40;97.17;100802.56;7214879;40;20369;31
2024/01/31 04:01:57;;;;;;;15.77;11.13;;;;;;;9.39;97.69;100808.06;7195039;40;20384;31
2024/01/31 04:12:36;;;;;;;16.65;11.70;;;;;;;9.33;97.92;100824.69;7225070;40;20723;31
2024/01/31 04:18:23;;;;;;;17.60;12.23;;;;;;;9.31;98.45;100823.94;7210381;40;20432;31
2024/01/31 04:29:00;;;;;;;17.90;11.80;;;;;;;9.32;97.84;100833.72;7226205;40;20270;31
2024/01/31 04:34:17;;;;;;;19.43;12.80;;;;;;;9.36;98.29;100837.88;7246459;40;20648;31
2024/01/31 04:39:53;;;;;;;17.07;12.57;;;;;;;9.35;97.83;100838.84;7269119;39;20271;31
2024/01/31 04:45:27;;;;;;;21.60;13.17;;;;;;;9.30;98.28;100839.22;7345301;39;21378;31
2024/01/31 04:51:02;;;;;;;19.00;12.60;;;;;;;9.32;97.45;100836.41;7311057;39;20251;31
2024/01/31 04:56:22;;;;;;;20.75;12.00;;;;;;;9.30;97.85;100851.84;7298841;39;20237;31
2024/01/31 05:01:56;;;;;;;17.37;12.20;;;;;;;9.28;98.06;100849.25;7269217;40;20393;31
2024/01/31 05:07:16;;;;;;;17.40;10.23;;;;;;;9.23;99.00;100866.72;7300598;39;20307;31
2024/01/31 05:12:34;;;;;;;15.98;11.06;;;;;;;9.20;98.27;100851.69;7342243;39;20347;31
2024/01/31 05:18:11;;;;;;;17.03;10.40;;;;;;;9.17;97.96;100869.91;7387074;39;20243;31
2024/01/31 05:23:31;;;;;;;15.90;10.20;;;;;;;9.20;98.48;100877.72;7383971;39;20267;31
2024/01/31 05:29:07;;;;;;;13.30;7.70;;;;;;;9.13;97.53;100874.63;7318686;39;20254;31
2024/01/31 05:34:44;;;;;;;4.95;3.80;;;;;;;8.99;95.22;100864.91;7265298;40;20361;31
2024/01/31 05:40:20;;;;;;;4.00;3.03;;;;;;;8.79;93.84;100867.37;7266585;39;20319;31
2024/01/31 05:45:40;;;;;;;3.25;2.50;;;;;;;8.62;93.51;100865.09;7252845;40;20272;31
2024/01/31 05:51:17;;;;;;;6.63;3.00;;;;;;;8.64;93.25;100868.53;7246556;40;20374;31
2024/01/31 05:56:38;;;;;;;6.45;2.95;;;;;;;8.77;94.05;100874.72;7277693;39;20260;31
2024/01/31 06:02:13;;;;;;;6.47;2.80;;;;;;;8.82;93.73;100875.25;7263930;40;20370;31
2024/01/31 06:07:45;;;;;;;5.80;2.50;;;;;;;8.82;93.16;100867.16;7274313;40;20250;31
2024/01/31 06:13:05;;;;;;;6.05;2.70;;;;;;;8.83;93.53;100872.41;7291569;39;20248;31
2024/01/31 06:18:26;;;;;;;4.63;2.83;;;;;;;8.82;92.79;100873.38;7358083;39;21394;31
2024/01/31 06:24:03;;;;;;;3.53;2.40;;;;;;;8.79;92.71;100879.00;7373118;39;20251;31
2024/01/31 06:29:38;;;;;;;4.70;2.30;;;;;;;8.76;92.11;100886.44;7299598;39;20255;31
2024/01/31 06:34:58;;;;;;;4.20;2.30;;;;;;;8.70;92.38;100886.88;7291700;39;20374;31
2024/01/31 06:40:33;;;;;;;4.55;2.40;;;;;;;8.59;90.86;100877.78;7298979;40;20250;31
2024/01/31 06:46:08;;;;;;;4.20;2.30;;;;;;;8.50;91.23;100881.16;7286248;39;20268;31
2024/01/31 06:51:28;;;;;;;4.80;2.40;;;;;;;8.51;92.06;100874.78;7278194;40;20245;31
2024/01/31 06:57:05;;;;;;;3.80;2.70;;;;;;;8.52;92.48;100860.37;7296807;39;20280;31
2024/01/31 07:02:40;;;;;;;6.50;3.20;;;;;;;8.51;92.40;100879.34;7298210;39;20385;31
2024/01/31 07:07:58;;;;;;;5.60;4.60;;;;;;;8.50;93.41;100873.09;7324892;39;20249;31
2024/01/31 07:13:31;;;;;;;11.40;6.90;;;;;;;8.44;93.72;100889.66;7298512;39;20545;31
2024/01/31 07:18:50;;;;;;;13.82;9.00;;;;;;;8.50;94.71;100901.78;7062757;40;21322;31
2024/01/31 07:24:10;;;;;;;16.33;8.87;;;;;;;8.54;94.88;100897.91;7317304;39;20240;31
2024/01/31 07:29:47;;;;;;;14.30;10.47;;;;;;;8.51;95.15;100900.81;7338677;39;20286;31
2024/01/31 07:35:24;;;;;;;17.05;11.80;;;;;;;8.49;95.82;100903.62;7285670;39;20272;31
2024/01/31 07:40:41;;;;;;;21.52;11.98;;;;;;;8.46;96.36;100909.22;7235059;40;20281;31
2024/01/31 07:51:16;;;;;;;15.32;11.88;;;;;;;8.51;95.78;100904.34;7305388;39;20717;31
2024/01/31 07:56:51;;;;;;;22.17;10.80;;;;;;;8.46;96.63;100911.91;7317931;39;20256;31
2024/01/31 08:02:11;;;;;;;12.60;9.95;;;;;;;8.48;96.94;100922.53;7326144;39;20263;31
2024/01/31 08:07:48;;;;;;;14.33;10.40;;;;;;;8.48;96.80;100919.84;7344911;39;20476;31
2024/01/31 08:13:09;;;;;;;15.03;11.47;;;;;;;8.54;96.45;100922.97;7294769;39;20341;31
2024/01/31 08:18:25;;;;;;;14.00;11.03;;;;;;;8.62;97.08;100924.22;7290422;39;20264;31
2024/01/31 08:23:58;;;;;;;16.95;12.10;;;;;;;8.59;96.39;100928.00;7286402;39;20266;31
2024/01/31 08:29:33;;;;;;;16.00;11.10;;;;;;;8.55;96.63;100926.50;7273981;39;21319;31
2024/01/31 08:34:54;;;;;;;20.20;11.85;;;;;;;8.54;97.73;100922.97;7256904;39;20253;31
2024/01/31 08:40:29;;;;;;;15.70;11.97;;;;;;;8.53;97.28;100920.38;7262544;39;20378;31
2024/01/31 08:45:49;;;;;;;16.70;12.20;;;;;;;8.54;97.73;100922.09;7318470;39;20239;31
2024/01/31 08:51:10;;;;;;;16.20;11.87;;;;;;;8.50;97.60;100916.09;7266735;40;20375;31
2024/01/31 08:56:45;;;;;;;13.70;10.90;;;;;;;8.45;98.19;100920.06;7281510;39;20341;31
2024/01/31 09:02:20;;;;;;;14.55;9.80;;;;;;;8.44;98.27;100921.03;7336838;39;20389;31
2024/01/31 09:12:58;;;;;;;21.25;13.20;;;;;;;8.47;98.30;100915.44;7266231;39;20582;31
2024/01/31 09:18:33;;;;;;;17.73;13.20;;;;;;;8.52;98.63;100919.50;7270589;39;20245;31
2024/01/31 09:24:09;;;;;;;16.80;12.65;;;;;;;8.58;98.49;100926.28;7225095;39;21318;31
2024/01/31 09:29:41;;;;;;;16.55;12.35;;;;;;;8.58;98.20;100916.38;7258366;40;20394;31
2024/01/31 09:35:01;;;;;;;13.10;11.00;;;;;;;8.62;98.17;100919.69;7245127;40;20259;31
2024/01/31 09:45:41;;;;;;;17.50;11.30;;;;;;;8.65;97.86;100906.03;7290159;39;20271;31
2024/01/31 09:51:16;;;;;;;23.60;14.50;;;;;;;8.72;97.23;100903.75;7352133;39;20240;31
2024/01/31 09:56:48;;;;;;;21.90;15.45;;;;;;;8.69;96.97;100899.44;7317451;39;20332;31
2024/01/31 10:02:19;;;;;;;17.10;10.70;;;;;;;8.74;96.64;100893.75;7319214;39;20573;31
2024/01/31 10:07:40;;;;;;;13.55;7.75;;;;;;;8.78;96.11;100887.16;7246841;40;20257;31
2024/01/31 10:13:14;;;;;;;9.50;6.30;;;;;;;8.77;95.22;100886.34;7265341;39;20264;31
2024/01/31 10:18:50;;;;;;;8.30;5.70;;;;;;;8.83;95.38;100880.47;7253305;40;20296;31
2024/01/31 10:24:09;;;;;;;8.20;5.67;;;;;;;8.98;95.73;100871.28;7242085;40;20258;31
2024/01/31 10:29:43;;;;;;;10.43;6.20;;;;;;;8.91;94.39;100866.44;7279485;40;20267;31
2024/01/31 10:35:21;;;;;;;10.40;7.00;;;;;;;8.92;94.51;100869.03;7253880;39;20250;31
2024/01/31 10:40:55;;;;;;;12.50;7.53;;;;;;;9.03;93.79;100857.50;7261464;39;20218;31
2024/01/31 10:46:30;;;;;;;9.80;6.20;;;;;;;9.07;93.24;100853.59;7248534;39;20284;31
2024/01/31 10:57:07;;;;;;;6.80;4.67;;;;;;;9.05;91.90;100850.13;7313603;39;20314;31
2024/01/31 15:08:52;;;;;;;17.87;9.97;;;;;;;8.65;97.78;100658.75;7346963;38;9786388;31
2024/01/31 15:14:27;;;;;;;15.73;9.53;;;;;;;8.89;97.32;100648.78;7449884;39;20379;31
2024/01/31 15:20:03;;;;;;;15.60;9.57;;;;;;;9.11;96.74;100653.34;7344253;39;20255;31
2024/01/31 15:25:38;;;;;;;17.17;11.40;;;;;;;9.27;96.05;100636.81;7282754;39;20572;31
2024/01/31 15:30:58;;;;;;;24.75;13.05;;;;;;;9.35;95.48;100639.75;7220848;40;20253;31
2024/01/31 15:36:33;;;;;;;16.83;11.70;;;;;;;9.34;95.61;100635.38;7242329;40;21605;31
2024/01/31 15:47:23;;;;;;;17.70;11.80;;;;;;;9.36;95.50;100647.69;7373302;39;21280;31
2024/01/31 15:52:56;;;;;;;22.67;15.60;;;;;;;9.39;95.41;100665.44;7325687;39;20367;31
2024/01/31 15:58:17;;;;;;;18.20;12.80;;;;;;;9.43;95.36;100662.38;7284996;40;20241;31
2024/01/31 16:03:48;;;;;;;11.73;8.83;;;;;;;9.40;94.62;100648.31;7298793;39;20571;31
2024/01/31 16:09:07;;;;;;;18.10;12.00;;;;;;;9.46;94.32;100643.31;7281779;39;20591;31
2024/01/31 16:14:42;;;;;;;17.27;12.40;;;;;;;9.47;94.82;100647.72;7298999;39;20341;31
2024/01/31 16:20:20;;;;;;;14.67;11.00;;;;;;;9.48;94.50;100640.47;7279088;40;20372;31
2024/01/31 16:25:55;;;;;;;19.40;11.70;;;;;;;9.48;94.17;100644.00;7270283;40;20335;31
2024/01/31 16:31:30;;;;;;;17.57;11.47;;;;;;;9.52;94.32;100637.41;7307814;39;20245;31
2024/01/31 16:37:03;;;;;;;32.37;24.63;;;;;;;9.52;94.04;100625.81;7288581;39;20292;31
2024/01/31 16:42:39;;;;;;;13.50;10.50;;;;;;;9.48;93.67;100625.19;7308757;39;20248;31
2024/01/31 16:48:01;;;;;;;27.17;20.27;;;;;;;9.52;93.32;100617.72;7279202;40;20387;31
2024/01/31 16:58:43;;;;;;;23.65;16.45;;;;;;;9.50;92.89;100612.47;7341208;39;20619;31
2024/01/31 17:09:22;;;;;;;34.13;19.77;;;;;;;9.51;93.11;100624.09;7276358;40;20256;31
2024/01/31 17:14:57;;;;;;;29.53;18.83;;;;;;;9.48;92.84;100619.78;7256591;40;20261;31
2024/01/31 17:20:18;;;;;;;19.10;13.00;;;;;;;9.52;93.46;100619.56;7323712;39;20294;31
2024/01/31 17:25:49;;;;;;;19.98;12.05;;;;;;;9.47;93.48;100604.66;7357687;39;20497;31
2024/01/31 17:31:27;;;;;;;10.87;6.17;;;;;;;9.46;91.13;100600.25;7268670;40;20232;31
2024/01/31 17:36:48;;;;;;;11.80;7.50;;;;;;;9.49;91.13;100599.13;7277766;40;20260;31
2024/01/31 17:42:08;;;;;;;6.00;4.80;;;;;;;9.46;88.23;100585.94;7257294;40;20389;31
2024/01/31 17:47:43;;;;;;;4.97;4.20;;;;;;;9.40;85.79;100589.09;7249760;39;20309;31
2024/01/31 17:53:18;;;;;;;4.20;3.60;;;;;;;9.43;84.26;100578.12;7306891;39;20236;31
2024/01/31 17:58:53;;;;;;;7.33;4.77;;;;;;;9.43;84.46;100595.09;7298347;39;20268;31
2024/01/31 18:09:34;;;;;;;6.95;4.70;;;;;;;9.48;84.29;100602.78;7291567;39;20264;31
2024/01/31 18:20:00;;;;;;;7.40;4.50;;;;;;;9.54;84.53;100601.44;7328192;39;21234;31
2024/01/31 18:25:37;;;;;;;7.70;4.40;;;;;;;9.49;85.54;100591.91;7357209;39;20310;31
2024/01/31 18:36:13;;;;;;;7.00;4.92;;;;;;;9.55;85.56;100560.09;7335667;39;20268;31
2024/01/31 18:41:46;;;;;;;16.77;9.17;;;;;;;9.52;85.09;100557.66;7338205;39;20611;31
2024/01/31 18:47:21;;;;;;;17.60;9.50;;;;;;;9.48;86.50;100555.19;7305958;39;20234;31
2024/01/31 18:52:56;;;;;;;10.70;7.30;;;;;;;9.45;87.13;100554.59;7295295;39;20328;31
2024/01/31 18:58:32;;;;;;;13.33;9.10;;;;;;;9.42;87.80;100552.19;7254093;40;20444;31
2024/01/31 19:03:52;;;;;;;7.73;5.50;;;;;;;9.45;87.99;100546.53;7269692;39;20256;31
2024/01/31 19:14:33;;;;;;;13.70;7.40;;;;;;;9.46;88.15;100537.47;7295297;39;20750;31
2024/01/31 19:25:12;;;;;;;7.70;4.97;;;;;;;9.51;88.33;100548.72;7235163;40;20775;31
2024/01/31 19:35:49;;;;;;;8.36;5.54;;;;;;;9.56;89.20;100542.97;7296476;39;21361;31
2024/01/31 19:41:25;;;;;;;6.20;5.30;;;;;;;9.58;89.23;100546.38;7360103;39;20335;31
2024/01/31 19:47:09;;;;;;;7.03;4.97;;;;;;;9.60;89.93;100533.66;7346635;39;20248;31
2024/01/31 19:52:45;;;;;;;6.80;5.55;;;;;;;9.62;90.79;100545.13;7267286;39;20238;31
2024/01/31 19:58:05;;;;;;;5.53;4.87;;;;;;;9.69;90.14;100530.19;7202155;40;20341;31
2024/01/31 20:03:26;;;;;;;7.60;6.03;;;;;;;9.68;90.63;100528.47;7217416;40;20348;31
2024/01/31 20:09:00;;;;;;;6.45;5.00;;;;;;;9.68;89.90;100513.19;7241675;40;20241;31
2024/01/31 20:14:35;;;;;;;6.40;4.77;;;;;;;9.73;89.36;100504.72;7325694;39;20394;31
2024/01/31 20:19:55;;;;;;;7.75;4.30;;;;;;;9.74;88.90;100495.66;7296328;40;20279;31
2024/01/31 20:25:26;;;;;;;4.45;3.20;;;;;;;9.75;88.10;100483.88;7243769;40;20254;31
2024/01/31 20:30:46;;;;;;;4.53;3.33;;;;;;;9.77;87.40;100469.34;7155160;40;20350;31
2024/01/31 20:36:22;;;;;;;3.90;3.10;;;;;;;9.76;86.99;100450.59;7221535;40;20237;31
2024/01/31 20:41:59;;;;;;;4.05;2.90;;;;;;;9.77;86.63;100455.00;7218247;40;20245;31
2024/01/31 20:47:19;;;;;;;4.10;2.90;;;;;;;9.78;85.98;100437.88;7275198;39;20388;31
2024/01/31 20:52:40;;;;;;;3.90;2.90;;;;;;;9.74;86.15;100437.25;7316731;39;20230;31
2024/01/31 20:58:15;;;;;;;4.67;2.60;;;;;;;9.71;85.63;100451.00;7296239;39;20341;31
2024/01/31 21:03:35;;;;;;;4.22;2.80;;;;;;;9.73;85.44;100448.19;7298957;39;21407;31
2024/01/31 21:09:11;;;;;;;3.80;2.70;;;;;;;9.72;84.93;100450.03;7299995;39;20244;31
2024/01/31 21:14:47;;;;;;;3.85;2.60;;;;;;;9.71;85.51;100436.69;7285937;39;20720;31
2024/01/31 21:20:22;;;;;;;5.47;3.00;;;;;;;9.70;85.34;100434.97;7302395;39;20379;31
2024/01/31 21:25:57;;;;;;;3.95;2.50;;;;;;;9.69;85.23;100428.75;7275620;39;20272;31
2024/01/31 21:36:55;;;;;;;3.20;2.40;;;;;;;9.67;84.47;100422.63;7296600;39;21424;31
2024/01/31 21:47:19;;;;;;;4.50;3.00;;;;;;;9.73;83.29;100429.34;7338029;39;20628;31
2024/01/31 21:57:55;;;;;;;3.30;2.60;;;;;;;9.67;83.62;100419.09;7311111;39;20287;31
2024/01/31 22:08:17;;;;;;;4.00;2.65;;;;;;;9.68;84.43;100418.97;7328651;39;20365;31
2024/01/31 22:13:53;;;;;;;4.82;3.08;;;;;;;9.65;84.23;100404.91;7160870;39;20297;31
2024/01/31 22:19:14;;;;;;;6.10;4.47;;;;;;;9.62;84.90;100408.72;7242680;40;20351;31
2024/01/31 22:24:44;;;;;;;4.70;2.70;;;;;;;9.62;84.54;100391.69;7243145;40;20241;31
2024/01/31 22:30:19;;;;;;;3.60;2.95;;;;;;;9.65;84.22;100396.84;7229412;40;20223;31
2024/01/31 22:35:54;;;;;;;5.40;3.40;;;;;;;9.67;84.42;100381.41;7219489;40;20243;31
2024/01/31 22:41:15;;;;;;;5.87;3.97;;;;;;;9.69;83.43;100374.06;7286837;39;20453;31
2024/01/31 22:46:50;;;;;;;5.10;3.37;;;;;;;9.63;84.18;100372.72;7253088;40;20466;31
2024/01/31 22:52:26;;;;;;;5.80;3.45;;;;;;;9.58;84.14;100369.59;7277230;39;20261;31
2024/01/31 23:03:01;;;;;;;4.20;3.40;;;;;;;9.54;84.12;100395.06;7251794;40;20256;31
2024/01/31 23:08:36;;;;;;;4.10;3.30;;;;;;;9.58;85.21;100401.88;7295290;40;20241;31
2024/01/31 23:14:11;;;;;;;5.63;3.77;;;;;;;9.58;84.65;100390.25;7307891;39;20261;31
2024/01/31 23:19:45;;;;;;;8.30;4.10;;;;;;;9.55;85.17;100410.22;7320526;39;20452;31
2024/01/31 23:25:06;;;;;;;4.80;3.77;;;;;;;9.59;85.13;100419.75;7254078;40;20287;31
2024/01/31 23:30:42;;;;;;;6.10;4.27;;;;;;;9.57;84.34;100426.22;7296486;39;20850;31
2024/01/31 23:41:16;;;;;;;5.44;3.90;;;;;;;9.56;84.00;100400.31;7346693;39;21305;31
2024/01/31 23:51:55;;;;;;;6.17;3.80;;;;;;;9.47;82.66;100386.66;7348558;39;21131;31
